Terminal Aerodrome Forecast
Issued by NWS

Home | Current Version | Previous Version | Text Only | Print | Product List | Glossary On
Versions: 1 2 3 4 5 6 7 8 9 10 11 12 13 14 15 16 17
361
FTUS43 KDVN 111721
TAFBRL
TAF
KBRL 111721Z 1118/1218 28015G23KT P6SM SCT120
     FM111900 31022G33KT P6SM BKN080
     FM112300 32024G30KT P6SM OVC025
     FM120400 33015G25KT P6SM SCT035
     FM121300 32011KT P6SM SCT200=

USA.gov is the U.S. government's official web portal to all federal, state and local government web resources and services.